sensor_id;sensor_type;location;lat;lon;timestamp;temperature;humidity
62912;DHT22;49111;51.028;4.218;2023-10-31T00:00:17;12.60;99.90
62912;DHT22;49111;51.028;4.218;2023-10-31T00:02:42;12.70;99.90
62912;DHT22;49111;51.028;4.218;2023-10-31T00:05:08;12.70;99.90
62912;DHT22;49111;51.028;4.218;2023-10-31T00:07:34;12.70;99.90
62912;DHT22;49111;51.028;4.218;2023-10-31T00:10:00;12.80;99.90
62912;DHT22;49111;51.028;4.218;2023-10-31T00:12:26;12.70;99.90
62912;DHT22;49111;51.028;4.218;2023-10-31T00:14:53;12.70;99.90
62912;DHT22;49111;51.028;4.218;2023-10-31T00:17:19;12.70;99.90
62912;DHT22;49111;51.028;4.218;2023-10-31T00:19:44;12.70;99.90
62912;DHT22;49111;51.028;4.218;2023-10-31T00:22:10;12.70;99.90
62912;DHT22;49111;51.028;4.218;2023-10-31T00:24:36;12.70;99.90
62912;DHT22;49111;51.028;4.218;2023-10-31T00:27:02;12.70;99.90
62912;DHT22;49111;51.028;4.218;2023-10-31T00:29:28;12.80;99.90
62912;DHT22;49111;51.028;4.218;2023-10-31T00:31:53;12.90;99.90
62912;DHT22;49111;51.028;4.218;2023-10-31T00:34:20;12.90;99.90
62912;DHT22;49111;51.028;4.218;2023-10-31T00:36:46;13.00;99.90
62912;DHT22;49111;51.028;4.218;2023-10-31T00:39:12;13.00;99.90
62912;DHT22;49111;51.028;4.218;2023-10-31T00:41:39;12.90;99.90
62912;DHT22;49111;51.028;4.218;2023-10-31T00:44:05;12.80;99.90
62912;DHT22;49111;51.028;4.218;2023-10-31T00:46:31;12.80;99.90
62912;DHT22;49111;51.028;4.218;2023-10-31T00:48:56;12.80;99.90
62912;DHT22;49111;51.028;4.218;2023-10-31T00:51:23;12.70;99.90
62912;DHT22;49111;51.028;4.218;2023-10-31T00:53:48;12.80;99.90
62912;DHT22;49111;51.028;4.218;2023-10-31T00:56:14;12.90;99.90
62912;DHT22;49111;51.028;4.218;2023-10-31T00:58:40;12.80;99.90
62912;DHT22;49111;51.028;4.218;2023-10-31T01:01:06;12.80;99.90
62912;DHT22;49111;51.028;4.218;2023-10-31T01:03:32;12.70;99.90
62912;DHT22;49111;51.028;4.218;2023-10-31T01:05:58;12.60;99.90
62912;DHT22;49111;51.028;4.218;2023-10-31T01:08:24;12.60;99.90
62912;DHT22;49111;51.028;4.218;2023-10-31T01:10:50;12.60;99.90
62912;DHT22;49111;51.028;4.218;2023-10-31T01:13:16;12.60;99.90
62912;DHT22;49111;51.028;4.218;2023-10-31T01:15:42;12.70;99.90
62912;DHT22;49111;51.028;4.218;2023-10-31T01:18:08;12.80;99.90
62912;DHT22;49111;51.028;4.218;2023-10-31T01:20:34;12.70;99.90
62912;DHT22;49111;51.028;4.218;2023-10-31T01:23:00;12.70;99.90
62912;DHT22;49111;51.028;4.218;2023-10-31T01:25:27;12.60;99.90
62912;DHT22;49111;51.028;4.218;2023-10-31T01:27:52;12.50;99.90
62912;DHT22;49111;51.028;4.218;2023-10-31T01:30:18;12.60;99.90
62912;DHT22;49111;51.028;4.218;2023-10-31T01:32:44;12.60;99.90
62912;DHT22;49111;51.028;4.218;2023-10-31T01:35:10;12.60;99.90
62912;DHT22;49111;51.028;4.218;2023-10-31T01:37:36;12.70;99.90
62912;DHT22;49111;51.028;4.218;2023-10-31T01:40:02;12.70;99.90
62912;DHT22;49111;51.028;4.218;2023-10-31T01:42:29;12.60;99.90
62912;DHT22;49111;51.028;4.218;2023-10-31T01:44:55;12.60;99.90
62912;DHT22;49111;51.028;4.218;2023-10-31T01:47:21;12.70;99.90
62912;DHT22;49111;51.028;4.218;2023-10-31T01:49:49;12.60;99.90
62912;DHT22;49111;51.028;4.218;2023-10-31T01:52:16;12.60;99.90
62912;DHT22;49111;51.028;4.218;2023-10-31T01:54:43;12.60;99.90
62912;DHT22;49111;51.028;4.218;2023-10-31T01:57:10;12.50;99.90
62912;DHT22;49111;51.028;4.218;2023-10-31T01:59:36;12.50;99.90
62912;DHT22;49111;51.028;4.218;2023-10-31T02:02:03;12.50;99.90
62912;DHT22;49111;51.028;4.218;2023-10-31T02:04:30;12.60;99.90
62912;DHT22;49111;51.028;4.218;2023-10-31T02:06:56;12.70;99.90
62912;DHT22;49111;51.028;4.218;2023-10-31T02:09:22;12.60;99.90
62912;DHT22;49111;51.028;4.218;2023-10-31T02:11:50;12.50;99.90
62912;DHT22;49111;51.028;4.218;2023-10-31T02:14:16;12.60;99.90
62912;DHT22;49111;51.028;4.218;2023-10-31T02:16:42;12.70;99.90
62912;DHT22;49111;51.028;4.218;2023-10-31T02:19:08;12.60;99.90
62912;DHT22;49111;51.028;4.218;2023-10-31T02:21:39;12.60;99.90
62912;DHT22;49111;51.028;4.218;2023-10-31T02:24:05;12.60;99.90
62912;DHT22;49111;51.028;4.218;2023-10-31T02:26:33;12.50;99.90
62912;DHT22;49111;51.028;4.218;2023-10-31T02:29:01;12.50;99.90
62912;DHT22;49111;51.028;4.218;2023-10-31T02:31:27;12.40;99.90
62912;DHT22;49111;51.028;4.218;2023-10-31T02:33:54;12.30;99.90
62912;DHT22;49111;51.028;4.218;2023-10-31T02:36:20;12.30;99.90
62912;DHT22;49111;51.028;4.218;2023-10-31T02:38:46;12.20;99.90
62912;DHT22;49111;51.028;4.218;2023-10-31T02:41:13;12.30;99.90
62912;DHT22;49111;51.028;4.218;2023-10-31T02:43:41;12.30;99.90
62912;DHT22;49111;51.028;4.218;2023-10-31T02:46:07;12.30;99.90
62912;DHT22;49111;51.028;4.218;2023-10-31T02:48:33;12.20;99.90
62912;DHT22;49111;51.028;4.218;2023-10-31T02:51:06;12.20;99.90
62912;DHT22;49111;51.028;4.218;2023-10-31T02:53:35;12.20;99.90
62912;DHT22;49111;51.028;4.218;2023-10-31T02:56:02;12.10;99.90
62912;DHT22;49111;51.028;4.218;2023-10-31T02:58:28;12.10;99.90
62912;DHT22;49111;51.028;4.218;2023-10-31T03:00:54;12.10;99.90
62912;DHT22;49111;51.028;4.218;2023-10-31T03:03:20;12.10;99.90
62912;DHT22;49111;51.028;4.218;2023-10-31T03:05:46;12.10;99.90
62912;DHT22;49111;51.028;4.218;2023-10-31T03:08:12;12.20;99.90
62912;DHT22;49111;51.028;4.218;2023-10-31T03:10:38;12.10;99.90
62912;DHT22;49111;51.028;4.218;2023-10-31T03:13:05;12.10;99.90
62912;DHT22;49111;51.028;4.218;2023-10-31T03:15:31;12.00;99.90
62912;DHT22;49111;51.028;4.218;2023-10-31T03:17:57;11.90;99.90
62912;DHT22;49111;51.028;4.218;2023-10-31T03:20:23;11.80;99.90
62912;DHT22;49111;51.028;4.218;2023-10-31T03:22:48;11.80;99.90
62912;DHT22;49111;51.028;4.218;2023-10-31T03:25:14;11.80;99.90
62912;DHT22;49111;51.028;4.218;2023-10-31T03:27:40;11.80;99.90
62912;DHT22;49111;51.028;4.218;2023-10-31T03:30:06;11.70;99.90
62912;DHT22;49111;51.028;4.218;2023-10-31T03:32:32;11.50;99.90
62912;DHT22;49111;51.028;4.218;2023-10-31T03:34:58;11.40;99.90
62912;DHT22;49111;51.028;4.218;2023-10-31T03:37:24;11.50;99.90
62912;DHT22;49111;51.028;4.218;2023-10-31T03:39:50;11.40;99.90
62912;DHT22;49111;51.028;4.218;2023-10-31T03:42:16;11.40;99.90
62912;DHT22;49111;51.028;4.218;2023-10-31T03:44:42;11.40;99.90
62912;DHT22;49111;51.028;4.218;2023-10-31T03:47:08;11.50;99.90
62912;DHT22;49111;51.028;4.218;2023-10-31T03:49:39;11.30;99.90
62912;DHT22;49111;51.028;4.218;2023-10-31T03:52:05;11.40;99.90
62912;DHT22;49111;51.028;4.218;2023-10-31T03:54:31;11.30;99.90
62912;DHT22;49111;51.028;4.218;2023-10-31T03:56:56;11.30;99.90
62912;DHT22;49111;51.028;4.218;2023-10-31T03:59:23;11.20;99.90
62912;DHT22;49111;51.028;4.218;2023-10-31T04:01:49;11.20;99.90
62912;DHT22;49111;51.028;4.218;2023-10-31T04:04:15;11.10;99.90
62912;DHT22;49111;51.028;4.218;2023-10-31T04:06:42;11.10;99.90
62912;DHT22;49111;51.028;4.218;2023-10-31T04:09:10;11.10;99.90
62912;DHT22;49111;51.028;4.218;2023-10-31T04:11:36;11.10;99.90
62912;DHT22;49111;51.028;4.218;2023-10-31T04:14:01;11.10;99.90
62912;DHT22;49111;51.028;4.218;2023-10-31T04:16:28;11.20;99.90
62912;DHT22;49111;51.028;4.218;2023-10-31T04:18:54;11.20;99.90
62912;DHT22;49111;51.028;4.218;2023-10-31T04:21:20;11.30;99.90
62912;DHT22;49111;51.028;4.218;2023-10-31T04:23:46;11.30;99.90
62912;DHT22;49111;51.028;4.218;2023-10-31T04:26:12;11.30;99.90
62912;DHT22;49111;51.028;4.218;2023-10-31T04:28:38;11.40;99.90
62912;DHT22;49111;51.028;4.218;2023-10-31T04:31:04;11.50;99.90
62912;DHT22;49111;51.028;4.218;2023-10-31T04:33:30;11.50;99.90
62912;DHT22;49111;51.028;4.218;2023-10-31T04:35:56;11.50;99.90
62912;DHT22;49111;51.028;4.218;2023-10-31T04:38:22;11.40;99.90
62912;DHT22;49111;51.028;4.218;2023-10-31T04:40:48;11.40;99.90
62912;DHT22;49111;51.028;4.218;2023-10-31T04:43:14;11.50;99.90
62912;DHT22;49111;51.028;4.218;2023-10-31T04:45:40;11.50;99.90
62912;DHT22;49111;51.028;4.218;2023-10-31T04:48:06;11.40;99.90
62912;DHT22;49111;51.028;4.218;2023-10-31T04:50:32;11.40;99.90
62912;DHT22;49111;51.028;4.218;2023-10-31T04:52:58;11.50;99.90
62912;DHT22;49111;51.028;4.218;2023-10-31T04:55:24;11.50;99.90
62912;DHT22;49111;51.028;4.218;2023-10-31T04:57:50;11.50;99.90
62912;DHT22;49111;51.028;4.218;2023-10-31T05:00:16;11.50;99.90
62912;DHT22;49111;51.028;4.218;2023-10-31T05:02:42;11.50;99.90
62912;DHT22;49111;51.028;4.218;2023-10-31T05:05:08;11.40;99.90
62912;DHT22;49111;51.028;4.218;2023-10-31T05:07:34;11.40;99.90
62912;DHT22;49111;51.028;4.218;2023-10-31T05:10:00;11.40;99.90
62912;DHT22;49111;51.028;4.218;2023-10-31T05:12:26;11.50;99.90
62912;DHT22;49111;51.028;4.218;2023-10-31T05:14:52;11.40;99.90
62912;DHT22;49111;51.028;4.218;2023-10-31T05:17:18;11.40;99.90
62912;DHT22;49111;51.028;4.218;2023-10-31T05:19:44;11.30;99.90
62912;DHT22;49111;51.028;4.218;2023-10-31T05:22:09;11.20;99.90
62912;DHT22;49111;51.028;4.218;2023-10-31T05:24:35;11.10;99.90
62912;DHT22;49111;51.028;4.218;2023-10-31T05:27:02;11.10;99.90
62912;DHT22;49111;51.028;4.218;2023-10-31T05:29:28;11.00;99.90
62912;DHT22;49111;51.028;4.218;2023-10-31T05:31:56;11.00;99.90
62912;DHT22;49111;51.028;4.218;2023-10-31T05:34:22;10.90;99.90
62912;DHT22;49111;51.028;4.218;2023-10-31T05:36:48;11.00;99.90
62912;DHT22;49111;51.028;4.218;2023-10-31T05:39:14;10.90;99.90
62912;DHT22;49111;51.028;4.218;2023-10-31T05:41:41;10.90;99.90
62912;DHT22;49111;51.028;4.218;2023-10-31T05:44:06;10.80;99.90
62912;DHT22;49111;51.028;4.218;2023-10-31T05:46:38;10.80;99.90
62912;DHT22;49111;51.028;4.218;2023-10-31T05:49:10;10.80;99.90
62912;DHT22;49111;51.028;4.218;2023-10-31T05:51:36;10.90;99.90
62912;DHT22;49111;51.028;4.218;2023-10-31T05:54:02;10.80;99.90
62912;DHT22;49111;51.028;4.218;2023-10-31T05:56:28;10.80;99.90
62912;DHT22;49111;51.028;4.218;2023-10-31T05:58:54;10.80;99.90
62912;DHT22;49111;51.028;4.218;2023-10-31T06:01:19;10.80;99.90
62912;DHT22;49111;51.028;4.218;2023-10-31T06:03:45;10.80;99.90
62912;DHT22;49111;51.028;4.218;2023-10-31T06:06:12;10.80;99.90
62912;DHT22;49111;51.028;4.218;2023-10-31T06:08:43;10.80;99.90
62912;DHT22;49111;51.028;4.218;2023-10-31T06:11:09;10.80;99.90
62912;DHT22;49111;51.028;4.218;2023-10-31T06:13:37;10.80;99.90
62912;DHT22;49111;51.028;4.218;2023-10-31T06:16:05;10.70;99.90
62912;DHT22;49111;51.028;4.218;2023-10-31T06:18:31;10.70;99.90
62912;DHT22;49111;51.028;4.218;2023-10-31T06:20:57;10.80;99.90
62912;DHT22;49111;51.028;4.218;2023-10-31T06:23:24;10.70;99.90
62912;DHT22;49111;51.028;4.218;2023-10-31T06:25:49;10.70;99.90
62912;DHT22;49111;51.028;4.218;2023-10-31T06:28:18;10.80;99.90
62912;DHT22;49111;51.028;4.218;2023-10-31T06:30:44;10.80;99.90
62912;DHT22;49111;51.028;4.218;2023-10-31T06:33:11;11.00;99.90
62912;DHT22;49111;51.028;4.218;2023-10-31T06:35:37;10.90;99.90
62912;DHT22;49111;51.028;4.218;2023-10-31T06:38:03;10.90;99.90
62912;DHT22;49111;51.028;4.218;2023-10-31T06:40:29;10.90;99.90
62912;DHT22;49111;51.028;4.218;2023-10-31T06:42:55;10.90;99.90
62912;DHT22;49111;51.028;4.218;2023-10-31T06:45:20;11.00;99.90
62912;DHT22;49111;51.028;4.218;2023-10-31T06:47:46;11.00;99.90
62912;DHT22;49111;51.028;4.218;2023-10-31T06:50:12;11.00;99.90
62912;DHT22;49111;51.028;4.218;2023-10-31T06:52:38;11.00;99.90
62912;DHT22;49111;51.028;4.218;2023-10-31T06:55:04;11.00;99.90
62912;DHT22;49111;51.028;4.218;2023-10-31T06:57:30;11.10;99.90
62912;DHT22;49111;51.028;4.218;2023-10-31T06:59:57;11.00;99.90
62912;DHT22;49111;51.028;4.218;2023-10-31T07:02:23;11.10;99.90
62912;DHT22;49111;51.028;4.218;2023-10-31T07:04:49;11.10;99.90
62912;DHT22;49111;51.028;4.218;2023-10-31T07:07:15;11.20;99.90
62912;DHT22;49111;51.028;4.218;2023-10-31T07:09:40;11.20;99.90
62912;DHT22;49111;51.028;4.218;2023-10-31T07:12:06;11.30;99.90
62912;DHT22;49111;51.028;4.218;2023-10-31T07:14:32;11.30;99.90
62912;DHT22;49111;51.028;4.218;2023-10-31T07:16:58;11.40;99.90
62912;DHT22;49111;51.028;4.218;2023-10-31T07:19:24;11.50;99.90
62912;DHT22;49111;51.028;4.218;2023-10-31T07:21:49;11.60;99.90
62912;DHT22;49111;51.028;4.218;2023-10-31T07:24:15;11.60;99.90
62912;DHT22;49111;51.028;4.218;2023-10-31T07:26:41;11.60;99.90
62912;DHT22;49111;51.028;4.218;2023-10-31T07:29:07;11.70;99.90
62912;DHT22;49111;51.028;4.218;2023-10-31T07:31:33;11.70;99.90
62912;DHT22;49111;51.028;4.218;2023-10-31T07:33:59;11.90;99.90
62912;DHT22;49111;51.028;4.218;2023-10-31T07:36:25;11.90;99.90
62912;DHT22;49111;51.028;4.218;2023-10-31T07:38:51;11.90;99.90
62912;DHT22;49111;51.028;4.218;2023-10-31T07:41:16;11.90;99.90
62912;DHT22;49111;51.028;4.218;2023-10-31T07:43:42;12.00;99.90
62912;DHT22;49111;51.028;4.218;2023-10-31T07:46:08;12.00;99.90
62912;DHT22;49111;51.028;4.218;2023-10-31T07:48:34;12.00;99.90
62912;DHT22;49111;51.028;4.218;2023-10-31T07:51:00;12.00;99.90
62912;DHT22;49111;51.028;4.218;2023-10-31T07:53:25;12.20;99.90
62912;DHT22;49111;51.028;4.218;2023-10-31T07:55:51;12.20;99.90
62912;DHT22;49111;51.028;4.218;2023-10-31T07:58:17;12.20;99.90
62912;DHT22;49111;51.028;4.218;2023-10-31T08:00:43;12.30;99.90
62912;DHT22;49111;51.028;4.218;2023-10-31T08:03:09;12.30;99.90
62912;DHT22;49111;51.028;4.218;2023-10-31T08:05:34;12.30;99.90
62912;DHT22;49111;51.028;4.218;2023-10-31T08:08:01;12.40;99.90
62912;DHT22;49111;51.028;4.218;2023-10-31T08:10:27;12.40;99.90
62912;DHT22;49111;51.028;4.218;2023-10-31T08:12:53;12.50;99.90
62912;DHT22;49111;51.028;4.218;2023-10-31T08:15:18;12.60;99.90
62912;DHT22;49111;51.028;4.218;2023-10-31T08:17:44;12.50;99.90
62912;DHT22;49111;51.028;4.218;2023-10-31T08:20:10;12.60;99.90
62912;DHT22;49111;51.028;4.218;2023-10-31T08:22:38;12.60;99.90
62912;DHT22;49111;51.028;4.218;2023-10-31T08:25:04;12.70;99.90
62912;DHT22;49111;51.028;4.218;2023-10-31T08:27:30;12.80;99.90
62912;DHT22;49111;51.028;4.218;2023-10-31T08:29:56;12.80;99.90
62912;DHT22;49111;51.028;4.218;2023-10-31T08:32:21;12.90;99.90
62912;DHT22;49111;51.028;4.218;2023-10-31T08:34:50;13.00;99.90
62912;DHT22;49111;51.028;4.218;2023-10-31T08:37:17;12.90;99.90
62912;DHT22;49111;51.028;4.218;2023-10-31T08:39:43;12.90;99.90
62912;DHT22;49111;51.028;4.218;2023-10-31T08:42:09;12.90;99.90
62912;DHT22;49111;51.028;4.218;2023-10-31T08:44:35;12.90;99.90
62912;DHT22;49111;51.028;4.218;2023-10-31T08:47:03;13.00;99.90
62912;DHT22;49111;51.028;4.218;2023-10-31T08:49:29;12.90;99.90
62912;DHT22;49111;51.028;4.218;2023-10-31T08:51:55;12.90;99.90
62912;DHT22;49111;51.028;4.218;2023-10-31T08:54:21;13.00;99.90
62912;DHT22;49111;51.028;4.218;2023-10-31T08:56:47;13.00;99.90
62912;DHT22;49111;51.028;4.218;2023-10-31T08:59:13;13.00;99.90
62912;DHT22;49111;51.028;4.218;2023-10-31T09:01:39;12.90;99.90
62912;DHT22;49111;51.028;4.218;2023-10-31T09:04:05;13.00;99.90
62912;DHT22;49111;51.028;4.218;2023-10-31T09:06:32;13.00;99.90
62912;DHT22;49111;51.028;4.218;2023-10-31T09:08:58;13.00;99.90
62912;DHT22;49111;51.028;4.218;2023-10-31T09:11:24;12.90;99.90
62912;DHT22;49111;51.028;4.218;2023-10-31T09:13:49;12.90;99.90
62912;DHT22;49111;51.028;4.218;2023-10-31T09:16:15;12.90;99.90
62912;DHT22;49111;51.028;4.218;2023-10-31T09:18:41;12.90;99.90
62912;DHT22;49111;51.028;4.218;2023-10-31T09:21:09;12.90;99.90
62912;DHT22;49111;51.028;4.218;2023-10-31T09:23:35;12.90;99.90
62912;DHT22;49111;51.028;4.218;2023-10-31T09:26:01;12.90;99.90
62912;DHT22;49111;51.028;4.218;2023-10-31T09:28:28;12.80;99.90
62912;DHT22;49111;51.028;4.218;2023-10-31T09:30:53;12.80;99.90
62912;DHT22;49111;51.028;4.218;2023-10-31T09:33:20;12.80;99.90
62912;DHT22;49111;51.028;4.218;2023-10-31T09:35:46;12.80;99.90
62912;DHT22;49111;51.028;4.218;2023-10-31T09:38:11;12.80;99.90
62912;DHT22;49111;51.028;4.218;2023-10-31T09:40:38;12.90;99.90
62912;DHT22;49111;51.028;4.218;2023-10-31T09:43:04;13.00;99.90
62912;DHT22;49111;51.028;4.218;2023-10-31T09:45:30;13.00;99.90
62912;DHT22;49111;51.028;4.218;2023-10-31T09:47:58;13.10;99.90
62912;DHT22;49111;51.028;4.218;2023-10-31T09:50:24;13.20;99.90
62912;DHT22;49111;51.028;4.218;2023-10-31T09:52:52;13.20;99.90
62912;DHT22;49111;51.028;4.218;2023-10-31T09:55:18;13.40;99.90
62912;DHT22;49111;51.028;4.218;2023-10-31T09:57:45;13.40;99.90
62912;DHT22;49111;51.028;4.218;2023-10-31T10:00:11;13.40;99.90
62912;DHT22;49111;51.028;4.218;2023-10-31T10:02:40;13.30;99.90
62912;DHT22;49111;51.028;4.218;2023-10-31T10:05:09;13.40;99.90
62912;DHT22;49111;51.028;4.218;2023-10-31T10:07:35;13.50;99.90
62912;DHT22;49111;51.028;4.218;2023-10-31T10:10:01;13.60;99.90
62912;DHT22;49111;51.028;4.218;2023-10-31T10:12:27;13.50;99.90
62912;DHT22;49111;51.028;4.218;2023-10-31T10:14:53;13.50;99.90
62912;DHT22;49111;51.028;4.218;2023-10-31T10:17:23;13.50;99.90
62912;DHT22;49111;51.028;4.218;2023-10-31T10:20:09;13.50;99.90
62912;DHT22;49111;51.028;4.218;2023-10-31T10:22:40;13.50;99.90
62912;DHT22;49111;51.028;4.218;2023-10-31T10:25:11;13.60;99.90
62912;DHT22;49111;51.028;4.218;2023-10-31T10:27:45;13.60;99.90
62912;DHT22;49111;51.028;4.218;2023-10-31T10:30:13;13.50;99.90
62912;DHT22;49111;51.028;4.218;2023-10-31T10:32:39;13.60;99.90
62912;DHT22;49111;51.028;4.218;2023-10-31T10:35:06;13.70;99.90
62912;DHT22;49111;51.028;4.218;2023-10-31T10:37:31;13.70;99.90
62912;DHT22;49111;51.028;4.218;2023-10-31T10:39:58;13.70;99.90
62912;DHT22;49111;51.028;4.218;2023-10-31T10:42:32;13.60;99.90
62912;DHT22;49111;51.028;4.218;2023-10-31T10:45:03;13.70;99.90
62912;DHT22;49111;51.028;4.218;2023-10-31T10:47:31;13.60;99.90
62912;DHT22;49111;51.028;4.218;2023-10-31T10:49:59;13.60;99.90
62912;DHT22;49111;51.028;4.218;2023-10-31T10:52:44;13.60;99.90
62912;DHT22;49111;51.028;4.218;2023-10-31T10:55:13;13.80;99.90
62912;DHT22;49111;51.028;4.218;2023-10-31T10:58:00;13.80;99.90
62912;DHT22;49111;51.028;4.218;2023-10-31T11:00:26;13.80;99.90
62912;DHT22;49111;51.028;4.218;2023-10-31T11:02:53;13.70;99.90
62912;DHT22;49111;51.028;4.218;2023-10-31T11:05:19;13.70;99.90
62912;DHT22;49111;51.028;4.218;2023-10-31T11:07:46;13.70;99.90
62912;DHT22;49111;51.028;4.218;2023-10-31T11:10:13;13.80;99.90
62912;DHT22;49111;51.028;4.218;2023-10-31T11:12:40;13.90;99.90
62912;DHT22;49111;51.028;4.218;2023-10-31T11:15:09;13.90;99.90
62912;DHT22;49111;51.028;4.218;2023-10-31T11:17:38;13.90;99.90
62912;DHT22;49111;51.028;4.218;2023-10-31T11:20:07;13.90;99.90
62912;DHT22;49111;51.028;4.218;2023-10-31T11:22:45;13.90;99.90
62912;DHT22;49111;51.028;4.218;2023-10-31T11:25:31;13.80;99.90
62912;DHT22;49111;51.028;4.218;2023-10-31T11:28:11;13.80;99.90
62912;DHT22;49111;51.028;4.218;2023-10-31T11:30:37;13.70;99.90
62912;DHT22;49111;51.028;4.218;2023-10-31T11:33:02;13.70;99.90
62912;DHT22;49111;51.028;4.218;2023-10-31T11:35:33;13.70;99.90
62912;DHT22;49111;51.028;4.218;2023-10-31T11:38:28;13.70;99.90
62912;DHT22;49111;51.028;4.218;2023-10-31T11:41:00;13.60;99.90
62912;DHT22;49111;51.028;4.218;2023-10-31T11:43:36;13.60;99.90
62912;DHT22;49111;51.028;4.218;2023-10-31T11:46:01;13.50;99.90
62912;DHT22;49111;51.028;4.218;2023-10-31T11:48:57;13.40;99.90
62912;DHT22;49111;51.028;4.218;2023-10-31T11:51:23;13.50;99.90
62912;DHT22;49111;51.028;4.218;2023-10-31T11:53:50;13.40;99.90
62912;DHT22;49111;51.028;4.218;2023-10-31T11:56:20;13.40;99.90
62912;DHT22;49111;51.028;4.218;2023-10-31T11:59:00;13.40;99.90
62912;DHT22;49111;51.028;4.218;2023-10-31T12:01:26;13.50;99.90
62912;DHT22;49111;51.028;4.218;2023-10-31T12:03:52;13.50;99.90
62912;DHT22;49111;51.028;4.218;2023-10-31T12:06:18;13.40;99.90
62912;DHT22;49111;51.028;4.218;2023-10-31T12:08:46;13.40;99.90
62912;DHT22;49111;51.028;4.218;2023-10-31T12:11:16;13.40;99.90
62912;DHT22;49111;51.028;4.218;2023-10-31T12:16:29;13.40;99.90
62912;DHT22;49111;51.028;4.218;2023-10-31T12:19:01;13.40;99.90
62912;DHT22;49111;51.028;4.218;2023-10-31T12:21:44;13.30;99.90
62912;DHT22;49111;51.028;4.218;2023-10-31T12:24:14;13.30;99.90
62912;DHT22;49111;51.028;4.218;2023-10-31T12:26:40;13.20;99.90
62912;DHT22;49111;51.028;4.218;2023-10-31T12:29:10;13.20;99.90
62912;DHT22;49111;51.028;4.218;2023-10-31T12:31:52;13.20;99.90
62912;DHT22;49111;51.028;4.218;2023-10-31T12:34:26;13.20;99.90
62912;DHT22;49111;51.028;4.218;2023-10-31T12:36:53;13.30;99.90
62912;DHT22;49111;51.028;4.218;2023-10-31T12:39:25;13.30;99.90
62912;DHT22;49111;51.028;4.218;2023-10-31T12:41:51;13.40;99.90
62912;DHT22;49111;51.028;4.218;2023-10-31T12:44:24;13.40;99.90
62912;DHT22;49111;51.028;4.218;2023-10-31T12:46:51;13.40;99.90
62912;DHT22;49111;51.028;4.218;2023-10-31T12:49:19;13.40;99.90
62912;DHT22;49111;51.028;4.218;2023-10-31T12:51:58;13.40;99.90
62912;DHT22;49111;51.028;4.218;2023-10-31T12:56:59;13.50;99.90
62912;DHT22;49111;51.028;4.218;2023-10-31T12:59:25;13.50;99.90
62912;DHT22;49111;51.028;4.218;2023-10-31T13:01:51;13.60;99.90
62912;DHT22;49111;51.028;4.218;2023-10-31T13:04:31;13.60;99.90
62912;DHT22;49111;51.028;4.218;2023-10-31T13:07:01;13.80;99.90
62912;DHT22;49111;51.028;4.218;2023-10-31T13:09:35;13.80;99.90
62912;DHT22;49111;51.028;4.218;2023-10-31T13:12:03;13.80;99.90
62912;DHT22;49111;51.028;4.218;2023-10-31T13:14:29;13.80;99.90
62912;DHT22;49111;51.028;4.218;2023-10-31T13:16:55;13.80;99.90
62912;DHT22;49111;51.028;4.218;2023-10-31T13:19:21;13.80;99.90
62912;DHT22;49111;51.028;4.218;2023-10-31T13:21:48;13.80;99.90
62912;DHT22;49111;51.028;4.218;2023-10-31T13:24:14;13.80;99.90
62912;DHT22;49111;51.028;4.218;2023-10-31T13:26:39;13.90;99.90
62912;DHT22;49111;51.028;4.218;2023-10-31T13:29:05;13.90;99.90
62912;DHT22;49111;51.028;4.218;2023-10-31T13:31:31;14.00;99.90
62912;DHT22;49111;51.028;4.218;2023-10-31T13:33:57;13.90;99.90
62912;DHT22;49111;51.028;4.218;2023-10-31T13:36:23;13.90;99.90
62912;DHT22;49111;51.028;4.218;2023-10-31T13:38:49;13.90;99.90
62912;DHT22;49111;51.028;4.218;2023-10-31T13:41:15;14.00;99.90
62912;DHT22;49111;51.028;4.218;2023-10-31T13:43:41;14.10;99.90
62912;DHT22;49111;51.028;4.218;2023-10-31T13:46:07;14.20;99.90
62912;DHT22;49111;51.028;4.218;2023-10-31T13:48:32;14.20;99.90
62912;DHT22;49111;51.028;4.218;2023-10-31T13:50:58;14.40;99.90
62912;DHT22;49111;51.028;4.218;2023-10-31T13:53:25;14.60;99.90
62912;DHT22;49111;51.028;4.218;2023-10-31T13:55:51;14.60;99.90
62912;DHT22;49111;51.028;4.218;2023-10-31T13:58:17;14.70;99.90
62912;DHT22;49111;51.028;4.218;2023-10-31T14:00:43;14.60;99.90
62912;DHT22;49111;51.028;4.218;2023-10-31T14:03:12;14.60;99.90
62912;DHT22;49111;51.028;4.218;2023-10-31T14:05:38;14.70;99.90
62912;DHT22;49111;51.028;4.218;2023-10-31T14:08:04;14.70;99.90
62912;DHT22;49111;51.028;4.218;2023-10-31T14:10:32;14.90;99.90
62912;DHT22;49111;51.028;4.218;2023-10-31T14:12:57;14.90;99.90
62912;DHT22;49111;51.028;4.218;2023-10-31T14:15:23;14.80;99.90
62912;DHT22;49111;51.028;4.218;2023-10-31T14:17:50;14.80;99.90
62912;DHT22;49111;51.028;4.218;2023-10-31T14:20:17;14.70;99.90
62912;DHT22;49111;51.028;4.218;2023-10-31T14:22:48;14.70;99.90
62912;DHT22;49111;51.028;4.218;2023-10-31T14:25:14;14.80;99.90
62912;DHT22;49111;51.028;4.218;2023-10-31T14:27:41;14.70;99.90
62912;DHT22;49111;51.028;4.218;2023-10-31T14:30:08;14.70;99.90
62912;DHT22;49111;51.028;4.218;2023-10-31T14:32:34;14.70;99.90
62912;DHT22;49111;51.028;4.218;2023-10-31T14:35:00;14.70;99.90
62912;DHT22;49111;51.028;4.218;2023-10-31T14:37:27;14.70;99.90
62912;DHT22;49111;51.028;4.218;2023-10-31T14:39:53;14.80;99.90
62912;DHT22;49111;51.028;4.218;2023-10-31T14:42:20;14.70;99.90
62912;DHT22;49111;51.028;4.218;2023-10-31T14:44:46;14.80;99.90
62912;DHT22;49111;51.028;4.218;2023-10-31T14:47:12;14.90;99.90
62912;DHT22;49111;51.028;4.218;2023-10-31T14:49:38;14.80;99.90
62912;DHT22;49111;51.028;4.218;2023-10-31T14:52:05;14.80;99.90
62912;DHT22;49111;51.028;4.218;2023-10-31T14:54:33;14.70;99.90
62912;DHT22;49111;51.028;4.218;2023-10-31T14:57:01;14.70;99.90
62912;DHT22;49111;51.028;4.218;2023-10-31T14:59:27;14.70;99.90
62912;DHT22;49111;51.028;4.218;2023-10-31T15:01:55;14.80;99.90
62912;DHT22;49111;51.028;4.218;2023-10-31T15:04:21;14.70;99.90
62912;DHT22;49111;51.028;4.218;2023-10-31T15:06:47;14.60;99.90
62912;DHT22;49111;51.028;4.218;2023-10-31T15:09:14;14.70;99.90
62912;DHT22;49111;51.028;4.218;2023-10-31T15:11:39;14.70;99.90
62912;DHT22;49111;51.028;4.218;2023-10-31T15:14:05;14.70;99.90
62912;DHT22;49111;51.028;4.218;2023-10-31T15:16:31;14.70;99.90
62912;DHT22;49111;51.028;4.218;2023-10-31T15:18:58;14.70;99.90
62912;DHT22;49111;51.028;4.218;2023-10-31T15:21:24;14.70;99.90
62912;DHT22;49111;51.028;4.218;2023-10-31T15:23:50;14.70;99.90
62912;DHT22;49111;51.028;4.218;2023-10-31T15:26:16;14.80;99.90
62912;DHT22;49111;51.028;4.218;2023-10-31T15:28:44;14.80;99.90
62912;DHT22;49111;51.028;4.218;2023-10-31T15:31:11;14.70;99.90
62912;DHT22;49111;51.028;4.218;2023-10-31T15:33:37;14.70;99.90